createdAt,value
2022-08-26T00:01:37.709Z,22.55
2022-08-26T00:04:04.302Z,22.52
2022-08-26T00:06:32.798Z,22.47
2022-08-26T00:08:59.838Z,22.49
2022-08-26T00:11:27.210Z,22.49
2022-08-26T00:13:55.497Z,22.38
2022-08-26T00:16:25.080Z,22.37
2022-08-26T00:18:52.464Z,22.34
2022-08-26T00:21:19.406Z,22.36
2022-08-26T00:23:46.208Z,22.34
2022-08-26T00:26:13.420Z,22.30
2022-08-26T00:28:40.391Z,22.36
2022-08-26T00:31:07.280Z,22.32
2022-08-26T00:33:34.069Z,22.34
2022-08-26T00:36:01.592Z,22.42
2022-08-26T00:38:28.997Z,22.46
2022-08-26T00:40:57.441Z,22.49
2022-08-26T00:43:26.045Z,22.41
2022-08-26T00:45:57.362Z,22.34
2022-08-26T00:48:31.789Z,22.33
2022-08-26T00:51:04.109Z,22.25
2022-08-26T00:53:35.657Z,22.24
2022-08-26T00:56:17.543Z,22.23
2022-08-26T00:58:45.321Z,22.28
2022-08-26T01:01:12.235Z,22.26
2022-08-26T01:03:41.677Z,22.24
2022-08-26T01:06:13.174Z,22.23
2022-08-26T01:08:40.489Z,22.25
2022-08-26T01:11:08.773Z,22.20
2022-08-26T01:13:36.833Z,22.17
2022-08-26T01:16:06.111Z,22.19
2022-08-26T01:18:33.393Z,22.19
2022-08-26T01:21:06.024Z,22.16
2022-08-26T01:23:39.765Z,22.17
2022-08-26T01:26:19.986Z,22.18
2022-08-26T01:28:51.597Z,22.17
2022-08-26T01:31:29.924Z,22.15
2022-08-26T01:34:17.617Z,22.10
2022-08-26T01:36:49.199Z,22.14
2022-08-26T01:39:18.305Z,22.20
2022-08-26T01:41:45.454Z,22.18
2022-08-26T01:44:18.389Z,22.17
2022-08-26T01:46:48.789Z,22.10
2022-08-26T01:49:18.611Z,22.15
2022-08-26T01:51:47.743Z,22.13
2022-08-26T01:54:14.966Z,22.07
2022-08-26T01:56:41.901Z,22.00
2022-08-26T01:59:12.773Z,21.96
2022-08-26T02:01:40.411Z,21.94
2022-08-26T02:04:17.692Z,21.94
2022-08-26T02:06:45.005Z,21.95
2022-08-26T02:09:12.513Z,21.98
2022-08-26T02:11:41.797Z,22.01
2022-08-26T02:14:22.663Z,22.01
2022-08-26T02:16:51.813Z,21.96
2022-08-26T02:19:27.553Z,21.98
2022-08-26T02:21:53.965Z,21.98
2022-08-26T02:24:27.403Z,22.00
2022-08-26T02:26:55.801Z,21.98
2022-08-26T02:29:24.754Z,21.89
2022-08-26T02:31:52.933Z,21.88
2022-08-26T02:34:22.425Z,21.87
2022-08-26T02:36:49.315Z,21.86
2022-08-26T02:39:22.105Z,21.78
2022-08-26T02:41:48.981Z,21.72
2022-08-26T02:44:15.821Z,21.71
2022-08-26T02:46:46.898Z,21.73
2022-08-26T02:49:14.842Z,21.71
2022-08-26T02:51:41.250Z,21.73
2022-08-26T02:54:09.737Z,21.71
2022-08-26T02:56:36.377Z,21.65
2022-08-26T02:59:02.949Z,21.62
2022-08-26T03:01:32.726Z,21.58
2022-08-26T03:04:01.452Z,21.54
2022-08-26T03:06:27.995Z,21.53
2022-08-26T03:08:55.906Z,21.53
2022-08-26T03:11:23.645Z,21.54
2022-08-26T03:13:51.642Z,21.56
2022-08-26T03:16:18.733Z,21.55
2022-08-26T03:18:47.029Z,21.56
2022-08-26T03:21:19.924Z,21.59
2022-08-26T03:23:46.863Z,21.57
2022-08-26T03:26:15.626Z,21.54
2022-08-26T03:29:01.766Z,21.55
2022-08-26T03:31:29.560Z,21.57
2022-08-26T03:33:59.627Z,21.59
2022-08-26T03:36:26.333Z,21.63
2022-08-26T03:38:53.591Z,21.64
2022-08-26T03:41:21.218Z,21.57
2022-08-26T03:43:48.305Z,21.53
2022-08-26T03:46:15.012Z,21.53
2022-08-26T03:48:41.458Z,21.51
2022-08-26T03:51:18.023Z,21.50
2022-08-26T03:53:45.649Z,21.50
2022-08-26T03:56:12.750Z,21.48
2022-08-26T03:58:39.414Z,21.47
2022-08-26T04:01:09.382Z,21.43
2022-08-26T04:03:54.284Z,21.40
2022-08-26T04:06:20.697Z,21.41
2022-08-26T04:08:48.259Z,21.41
2022-08-26T04:11:20.046Z,21.46
2022-08-26T04:13:47.817Z,21.46
2022-08-26T04:16:17.509Z,21.43
2022-08-26T04:18:46.891Z,21.39
2022-08-26T04:21:15.367Z,21.39
2022-08-26T04:23:47.605Z,21.42
2022-08-26T04:26:15.221Z,21.39
2022-08-26T04:28:41.759Z,21.42
2022-08-26T04:31:12.430Z,21.42
2022-08-26T04:33:41.679Z,21.40
2022-08-26T04:36:08.936Z,21.37
2022-08-26T04:38:35.616Z,21.39
2022-08-26T04:41:03.252Z,21.43
2022-08-26T04:43:32.025Z,21.37
2022-08-26T04:46:01.736Z,21.34
2022-08-26T04:48:30.825Z,21.30
2022-08-26T04:50:58.522Z,21.35
2022-08-26T04:53:25.952Z,21.26
2022-08-26T04:55:55.245Z,21.25
2022-08-26T04:58:24.656Z,21.26
2022-08-26T05:00:55.028Z,21.28
2022-08-26T05:03:23.530Z,21.29
2022-08-26T05:05:50.839Z,21.29
2022-08-26T05:08:20.061Z,21.23
2022-08-26T05:10:56.532Z,21.22
2022-08-26T05:13:26.845Z,21.25
2022-08-26T05:15:54.474Z,21.28
2022-08-26T05:18:23.959Z,21.30
2022-08-26T05:20:54.020Z,21.20
2022-08-26T05:23:25.179Z,21.15
2022-08-26T05:25:59.008Z,21.14
2022-08-26T05:28:29.071Z,21.11
2022-08-26T05:30:56.477Z,21.16
2022-08-26T05:33:23.418Z,21.22
2022-08-26T05:35:49.968Z,21.21
2022-08-26T05:38:20.051Z,21.16
2022-08-26T05:40:52.778Z,21.06
2022-08-26T05:43:20.467Z,21.06
2022-08-26T05:45:49.729Z,20.98
2022-08-26T05:48:18.960Z,21.01
2022-08-26T05:50:51.731Z,21.06
2022-08-26T05:53:21.326Z,21.09
2022-08-26T05:55:53.701Z,21.06
2022-08-26T05:58:21.809Z,21.04
2022-08-26T06:01:06.743Z,21.11
2022-08-26T06:03:36.985Z,21.10
2022-08-26T06:06:09.674Z,21.08
2022-08-26T06:08:37.722Z,21.04
2022-08-26T06:11:07.105Z,21.05
2022-08-26T06:13:34.916Z,21.04
2022-08-26T06:16:05.024Z,21.02
2022-08-26T06:18:36.194Z,20.99
2022-08-26T06:21:11.634Z,20.99
2022-08-26T06:23:56.834Z,20.99
2022-08-26T06:26:25.657Z,20.94
2022-08-26T06:28:52.157Z,20.96
2022-08-26T06:31:18.676Z,21.00
2022-08-26T06:33:45.225Z,21.00
2022-08-26T06:36:23.589Z,21.05
2022-08-26T06:38:51.126Z,20.99
2022-08-26T06:41:20.022Z,20.99
2022-08-26T06:43:47.180Z,20.98
2022-08-26T06:46:17.115Z,21.02
2022-08-26T06:48:44.859Z,20.96
2022-08-26T06:51:16.062Z,20.90
2022-08-26T06:53:46.758Z,20.92
2022-08-26T06:56:17.180Z,20.98
2022-08-26T06:58:43.592Z,20.93
2022-08-26T07:01:46.379Z,20.97
2022-08-26T07:04:15.774Z,21.03
2022-08-26T07:06:48.819Z,20.99
2022-08-26T07:09:16.725Z,21.04
2022-08-26T07:11:44.440Z,20.98
2022-08-26T07:14:12.110Z,20.96
2022-08-26T07:16:39.752Z,20.99
2022-08-26T07:19:11.294Z,20.98
2022-08-26T07:21:41.372Z,21.01
2022-08-26T07:24:11.172Z,20.98
2022-08-26T07:26:39.211Z,21.04
2022-08-26T07:29:09.797Z,21.03
2022-08-26T07:31:39.469Z,21.10
2022-08-26T07:34:09.287Z,21.09
2022-08-26T07:36:36.394Z,21.08
2022-08-26T07:39:02.904Z,21.07
2022-08-26T07:43:56.696Z,20.97
2022-08-26T07:46:30.063Z,20.93
2022-08-26T07:48:57.599Z,20.91
2022-08-26T07:51:25.463Z,20.93
2022-08-26T07:53:52.347Z,20.97
2022-08-26T07:56:20.747Z,21.07
2022-08-26T07:58:51.319Z,21.04
2022-08-26T08:01:18.899Z,21.07
2022-08-26T08:03:45.423Z,21.10
2022-08-26T08:06:11.854Z,21.00
2022-08-26T08:08:40.666Z,20.97
2022-08-26T08:11:07.373Z,20.99
2022-08-26T08:13:38.646Z,21.00
2022-08-26T08:16:05.598Z,21.02
2022-08-26T08:18:32.343Z,21.09
2022-08-26T08:21:21.162Z,21.12
2022-08-26T08:23:48.158Z,21.16
2022-08-26T08:26:15.281Z,21.05
2022-08-26T08:28:43.434Z,21.05
2022-08-26T08:31:56.640Z,20.99
2022-08-26T08:34:26.332Z,21.05
2022-08-26T08:36:53.510Z,21.05
2022-08-26T08:39:20.299Z,20.97
2022-08-26T08:41:54.093Z,20.95
2022-08-26T08:47:01.382Z,21.02
2022-08-26T08:49:30.361Z,21.02
2022-08-26T08:52:04.307Z,21.02
2022-08-26T08:54:32.014Z,21.03
2022-08-26T08:57:12.907Z,21.13
2022-08-26T09:00:19.286Z,21.24
2022-08-26T09:03:17.521Z,21.28
2022-08-26T09:05:48.688Z,21.30
2022-08-26T09:08:25.053Z,21.35
2022-08-26T09:10:59.094Z,21.38
2022-08-26T09:13:27.341Z,21.36
2022-08-26T09:16:13.718Z,21.29
2022-08-26T09:18:47.588Z,21.28
2022-08-26T09:21:17.906Z,21.29
2022-08-26T09:23:49.177Z,21.34
2022-08-26T09:26:30.776Z,21.32
2022-08-26T09:29:03.409Z,21.30
2022-08-26T09:31:34.064Z,21.39
2022-08-26T09:34:19.151Z,21.51
2022-08-26T09:36:49.527Z,21.52
2022-08-26T09:39:27.721Z,21.51
2022-08-26T09:42:24.504Z,21.48
2022-08-26T09:44:54.966Z,21.41
2022-08-26T09:47:55.908Z,21.40
2022-08-26T09:50:35.026Z,21.42
2022-08-26T09:53:28.583Z,21.34
2022-08-26T09:56:25.492Z,21.36
2022-08-26T09:58:55.941Z,21.35
2022-08-26T10:01:35.247Z,21.37
2022-08-26T10:04:07.309Z,21.36
2022-08-26T10:06:40.345Z,21.30
2022-08-26T10:09:13.466Z,21.28
2022-08-26T10:11:48.078Z,21.32
2022-08-26T10:14:25.225Z,21.35
2022-08-26T10:17:02.099Z,21.34
2022-08-26T10:19:41.616Z,21.27
2022-08-26T10:22:45.542Z,21.22
2022-08-26T10:25:25.930Z,21.31
2022-08-26T10:28:00.660Z,21.32
2022-08-26T10:30:34.362Z,21.36
2022-08-26T10:33:06.607Z,21.41
2022-08-26T10:35:36.934Z,21.34
2022-08-26T10:38:15.112Z,21.32
2022-08-26T10:40:59.002Z,21.24
2022-08-26T10:43:56.244Z,21.31
2022-08-26T10:46:28.422Z,21.36
2022-08-26T10:49:12.943Z,21.38
2022-08-26T10:52:12.045Z,21.37
2022-08-26T10:54:53.664Z,21.42
2022-08-26T10:57:50.206Z,21.41
2022-08-26T11:00:41.076Z,21.41
2022-08-26T11:03:22.614Z,21.45
2022-08-26T11:06:36.978Z,21.47
2022-08-26T11:09:07.062Z,21.55
2022-08-26T11:11:41.228Z,21.59
2022-08-26T11:14:30.299Z,21.61
2022-08-26T11:17:00.035Z,21.63
2022-08-26T11:19:50.858Z,21.62
2022-08-26T11:22:36.298Z,21.57
2022-08-26T11:25:11.530Z,21.54
2022-08-26T11:27:38.391Z,21.59
2022-08-26T11:30:19.329Z,21.59
2022-08-26T11:32:55.320Z,21.59
2022-08-26T11:35:23.162Z,21.53
2022-08-26T11:38:20.069Z,21.62
2022-08-26T11:40:56.221Z,21.68
2022-08-26T11:43:26.502Z,21.62
2022-08-26T11:48:30.521Z,21.78
2022-08-26T11:51:17.489Z,21.89
2022-08-26T11:53:44.936Z,22.01
2022-08-26T11:56:28.756Z,22.06
2022-08-26T11:59:01.042Z,22.01
2022-08-26T12:01:31.220Z,21.91
2022-08-26T12:03:59.596Z,21.90
2022-08-26T12:06:30.497Z,21.88
2022-08-26T12:09:02.245Z,21.87
2022-08-26T12:11:35.937Z,21.86
2022-08-26T12:14:20.554Z,21.79
2022-08-26T12:16:47.701Z,21.69
2022-08-26T12:19:33.005Z,21.71
2022-08-26T12:22:06.386Z,21.73
2022-08-26T12:24:32.965Z,21.75
2022-08-26T12:27:22.353Z,21.77
2022-08-26T12:30:08.377Z,21.72
2022-08-26T12:32:37.202Z,21.66
2022-08-26T12:35:21.923Z,21.72
2022-08-26T12:37:51.701Z,21.70
2022-08-26T12:40:43.798Z,21.66
2022-08-26T12:43:13.444Z,21.50
2022-08-26T12:45:55.567Z,21.48
2022-08-26T12:48:26.914Z,21.41
2022-08-26T12:50:54.916Z,21.35
2022-08-26T12:53:33.141Z,21.33
2022-08-26T12:56:05.242Z,21.39
2022-08-26T12:58:33.069Z,21.46
2022-08-26T13:01:06.314Z,21.48
2022-08-26T13:03:40.207Z,21.40
2022-08-26T13:06:20.462Z,21.44
2022-08-26T13:08:49.555Z,21.44
2022-08-26T13:11:27.727Z,21.44
2022-08-26T13:14:07.015Z,21.44
2022-08-26T13:16:35.387Z,21.41
2022-08-26T13:19:05.725Z,21.39
2022-08-26T13:21:53.768Z,21.27
2022-08-26T13:24:23.181Z,21.16
2022-08-26T13:26:50.218Z,21.11
2022-08-26T13:29:17.173Z,21.23
2022-08-26T13:31:44.925Z,21.24
2022-08-26T13:34:14.394Z,21.32
2022-08-26T13:36:45.025Z,21.40
2022-08-26T13:39:11.889Z,21.44
2022-08-26T13:41:38.309Z,21.48
2022-08-26T13:44:05.424Z,21.53
2022-08-26T13:46:31.902Z,21.53
2022-08-26T13:48:58.766Z,21.51
2022-08-26T13:51:26.724Z,21.51
2022-08-26T13:53:54.216Z,21.54
2022-08-26T13:56:21.449Z,21.61
2022-08-26T13:58:47.877Z,21.59
2022-08-26T14:01:16.140Z,21.59
2022-08-26T14:03:43.631Z,21.59
2022-08-26T14:06:10.284Z,21.58
2022-08-26T14:08:38.462Z,21.54
2022-08-26T14:11:05.140Z,21.41
2022-08-26T14:13:31.565Z,21.37
2022-08-26T14:16:01.188Z,21.28
2022-08-26T14:18:42.144Z,21.23
2022-08-26T14:21:13.117Z,21.28
2022-08-26T14:23:40.078Z,21.34
2022-08-26T14:26:08.188Z,21.38
2022-08-26T14:28:35.278Z,21.44
2022-08-26T14:31:02.930Z,21.50
2022-08-26T14:33:32.624Z,21.57
2022-08-26T14:36:19.091Z,21.62
2022-08-26T14:38:46.678Z,21.59
2022-08-26T14:41:16.325Z,21.58
2022-08-26T14:43:48.448Z,21.60
2022-08-26T14:46:16.042Z,21.57
2022-08-26T14:48:42.718Z,21.49
2022-08-26T14:51:09.157Z,21.52
2022-08-26T14:53:54.309Z,21.55
2022-08-26T14:56:20.982Z,21.68
2022-08-26T14:58:47.515Z,21.62
2022-08-26T15:01:14.974Z,21.59
2022-08-26T15:03:42.422Z,21.56
2022-08-26T15:06:10.253Z,21.58
2022-08-26T15:11:04.309Z,21.72
2022-08-26T15:13:30.737Z,21.71
2022-08-26T15:15:57.190Z,21.76
2022-08-26T15:18:23.662Z,21.76
2022-08-26T15:20:50.299Z,21.72
2022-08-26T15:23:16.686Z,21.76
2022-08-26T15:25:44.496Z,21.79
2022-08-26T15:28:10.897Z,21.79
2022-08-26T15:30:37.445Z,21.83
2022-08-26T15:33:03.978Z,21.83
2022-08-26T15:35:30.445Z,21.89
2022-08-26T15:38:02.503Z,21.79
2022-08-26T15:40:28.926Z,21.69
2022-08-26T15:43:11.537Z,21.68
2022-08-26T15:45:41.980Z,21.71
2022-08-26T15:48:08.385Z,21.71
2022-08-26T15:50:34.818Z,21.78
2022-08-26T15:53:01.366Z,21.76
2022-08-26T15:55:27.750Z,21.77
2022-08-26T15:57:54.864Z,21.70
2022-08-26T16:00:21.337Z,21.65
2022-08-26T16:02:48.254Z,21.61
2022-08-26T16:05:14.737Z,21.59
2022-08-26T16:07:41.125Z,21.52
2022-08-26T16:10:07.945Z,21.53
2022-08-26T16:12:34.369Z,21.55
2022-08-26T16:15:00.940Z,21.54
2022-08-26T16:17:27.497Z,21.49
2022-08-26T16:19:53.892Z,21.50
2022-08-26T16:22:20.266Z,21.45
2022-08-26T16:24:48.624Z,21.32
2022-08-26T16:27:16.181Z,21.37
2022-08-26T16:29:42.637Z,21.42
2022-08-26T16:32:09.097Z,21.43
2022-08-26T16:34:36.091Z,21.39
2022-08-26T16:37:02.574Z,21.41
2022-08-26T16:39:28.988Z,21.44
2022-08-26T16:41:55.552Z,21.37
2022-08-26T16:44:22.156Z,21.32
2022-08-26T16:46:48.687Z,21.21
2022-08-26T16:49:15.194Z,21.25
2022-08-26T16:51:41.673Z,21.37
2022-08-26T16:54:08.718Z,21.37
2022-08-26T16:56:36.349Z,21.36
2022-08-26T16:59:05.707Z,21.37
2022-08-26T17:01:32.480Z,21.30
2022-08-26T17:03:58.922Z,21.29
2022-08-26T17:06:25.353Z,21.28
2022-08-26T17:08:52.970Z,21.27
2022-08-26T17:11:19.638Z,21.28
2022-08-26T17:13:46.102Z,21.30
2022-08-26T17:16:12.969Z,21.29
2022-08-26T17:18:39.426Z,21.16
2022-08-26T17:21:09.325Z,21.17
2022-08-26T17:23:36.766Z,21.10
2022-08-26T17:26:04.030Z,21.07
2022-08-26T17:28:30.478Z,21.06
2022-08-26T17:30:58.303Z,20.98
2022-08-26T17:33:25.656Z,20.98
2022-08-26T17:35:52.944Z,20.94
2022-08-26T17:38:19.455Z,20.78
2022-08-26T17:40:45.846Z,20.74
2022-08-26T17:43:12.703Z,20.76
2022-08-26T17:45:42.026Z,20.78
2022-08-26T17:48:09.532Z,20.72
2022-08-26T17:50:42.283Z,20.79
2022-08-26T17:53:18.486Z,20.79
2022-08-26T17:55:46.883Z,20.74
2022-08-26T17:58:14.797Z,20.76
2022-08-26T18:00:47.013Z,20.80
2022-08-26T18:03:13.671Z,20.81
2022-08-26T18:05:42.372Z,20.78
2022-08-26T18:08:09.894Z,20.73
2022-08-26T18:10:36.321Z,20.75
2022-08-26T18:13:02.854Z,20.73
2022-08-26T18:15:29.329Z,20.70
2022-08-26T18:17:55.745Z,20.68
2022-08-26T18:20:22.298Z,20.65
2022-08-26T18:22:48.849Z,20.64
2022-08-26T18:25:18.906Z,20.65
2022-08-26T18:27:45.329Z,20.65
2022-08-26T18:30:20.571Z,20.65
2022-08-26T18:32:48.255Z,20.65
2022-08-26T18:35:14.890Z,20.59
2022-08-26T18:37:42.490Z,20.58
2022-08-26T18:40:12.483Z,20.63
2022-08-26T18:42:39.146Z,20.58
2022-08-26T18:45:07.754Z,20.48
2022-08-26T18:47:34.494Z,20.44
2022-08-26T18:50:02.468Z,20.42
2022-08-26T18:52:28.897Z,20.39
2022-08-26T18:54:55.446Z,20.29
2022-08-26T18:57:21.857Z,20.26
2022-08-26T18:59:48.273Z,20.29
2022-08-26T19:02:14.806Z,20.34
2022-08-26T19:04:41.773Z,20.36
2022-08-26T19:07:08.687Z,20.36
2022-08-26T19:09:35.427Z,20.35
2022-08-26T19:12:04.091Z,20.32
2022-08-26T19:14:31.790Z,20.27
2022-08-26T19:16:59.038Z,20.29
2022-08-26T19:19:25.559Z,20.23
2022-08-26T19:21:52.917Z,20.21
2022-08-26T19:24:20.036Z,20.21
2022-08-26T19:26:49.990Z,20.22
2022-08-26T19:31:49.292Z,20.22
2022-08-26T19:34:18.316Z,20.22
2022-08-26T19:36:48.290Z,20.21
2022-08-26T19:39:15.056Z,20.18
2022-08-26T19:41:41.463Z,20.15
2022-08-26T19:44:11.364Z,20.10
2022-08-26T19:49:05.590Z,20.07
2022-08-26T19:51:34.050Z,20.09
2022-08-26T19:54:01.123Z,20.04
2022-08-26T19:56:28.451Z,20.05
2022-08-26T19:58:55.729Z,20.05
2022-08-26T20:01:22.446Z,20.05
2022-08-26T20:03:49.347Z,20.06
2022-08-26T20:06:16.725Z,20.06
2022-08-26T20:08:44.171Z,20.04
2022-08-26T20:11:14.446Z,20.00
2022-08-26T20:13:41.913Z,19.98
2022-08-26T20:16:10.218Z,19.97
2022-08-26T20:18:59.844Z,19.93
2022-08-26T20:21:27.500Z,19.89
2022-08-26T20:24:00.529Z,19.87
2022-08-26T20:26:28.878Z,19.86
2022-08-26T20:28:56.650Z,19.86
2022-08-26T20:31:24.207Z,19.85
2022-08-26T20:33:51.629Z,19.85
2022-08-26T20:36:20.302Z,19.86
2022-08-26T20:38:47.647Z,19.84
2022-08-26T20:41:15.150Z,19.81
2022-08-26T20:43:42.748Z,19.82
2022-08-26T20:46:16.916Z,19.82
2022-08-26T20:48:45.545Z,19.81
2022-08-26T20:51:12.205Z,19.73
2022-08-26T20:53:38.906Z,19.74
2022-08-26T20:56:08.709Z,19.74
2022-08-26T20:58:35.437Z,19.71
2022-08-26T21:01:07.267Z,19.69
2022-08-26T21:03:35.055Z,19.68
2022-08-26T21:06:01.789Z,19.68
2022-08-26T21:08:28.291Z,19.67
2022-08-26T21:10:54.710Z,19.67
2022-08-26T21:13:22.662Z,19.65
2022-08-26T21:15:49.085Z,19.64
2022-08-26T21:18:15.555Z,19.63
2022-08-26T21:20:41.982Z,19.62
2022-08-26T21:23:08.480Z,19.64
2022-08-26T21:25:34.878Z,19.64
2022-08-26T21:28:01.299Z,19.65
2022-08-26T21:30:27.841Z,19.63
2022-08-26T21:32:54.257Z,19.62
2022-08-26T21:35:21.085Z,19.62
2022-08-26T21:37:47.474Z,19.62
2022-08-26T21:40:14.220Z,19.56
2022-08-26T21:42:40.721Z,19.52
2022-08-26T21:45:07.568Z,19.49
2022-08-26T21:47:34.022Z,19.47
2022-08-26T21:50:00.596Z,19.50
2022-08-26T21:52:27.270Z,19.50
2022-08-26T21:55:01.664Z,19.47
2022-08-26T21:57:28.994Z,19.44
2022-08-26T21:59:56.322Z,19.49
2022-08-26T22:02:23.111Z,19.50
2022-08-26T22:04:49.697Z,19.51
2022-08-26T22:07:19.042Z,19.52
2022-08-26T22:09:46.286Z,19.52
2022-08-26T22:12:18.187Z,19.49
2022-08-26T22:14:45.400Z,19.48
2022-08-26T22:17:11.974Z,19.46
2022-08-26T22:19:39.101Z,19.47
2022-08-26T22:22:14.383Z,19.47
2022-08-26T22:24:43.127Z,19.45
2022-08-26T22:27:11.789Z,19.36
2022-08-26T22:29:38.472Z,19.35
2022-08-26T22:32:05.008Z,19.33
2022-08-26T22:34:32.098Z,19.27
2022-08-26T22:36:59.032Z,19.27
2022-08-26T22:39:26.087Z,19.29
2022-08-26T22:41:54.280Z,19.32
2022-08-26T22:44:22.021Z,19.33
2022-08-26T22:46:49.988Z,19.31
2022-08-26T22:49:17.134Z,19.28
2022-08-26T22:51:45.260Z,19.25
2022-08-26T22:54:12.599Z,19.24
2022-08-26T22:56:39.876Z,19.23
2022-08-26T22:59:07.729Z,19.20
2022-08-26T23:01:40.093Z,19.19
2022-08-26T23:04:07.795Z,19.16
2022-08-26T23:06:36.912Z,19.14
2022-08-26T23:09:05.276Z,19.15
2022-08-26T23:11:31.880Z,19.14
2022-08-26T23:13:58.288Z,19.10
2022-08-26T23:16:27.944Z,19.08
2022-08-26T23:19:02.742Z,19.08
2022-08-26T23:21:29.148Z,19.10
2022-08-26T23:23:56.241Z,19.11
2022-08-26T23:26:22.671Z,19.13
2022-08-26T23:28:49.073Z,19.14
2022-08-26T23:31:15.786Z,19.14
2022-08-26T23:34:00.825Z,19.09
2022-08-26T23:36:29.603Z,19.07
2022-08-26T23:38:57.286Z,19.08
2022-08-26T23:41:24.171Z,19.05
2022-08-26T23:43:51.693Z,19.01
2022-08-26T23:46:19.401Z,18.94
2022-08-26T23:48:46.832Z,18.94
2022-08-26T23:51:32.096Z,18.91
2022-08-26T23:53:58.566Z,18.85
2022-08-26T23:56:25.576Z,18.86
2022-08-26T23:58:53.663Z,18.87
